Buoy 17652

sailwx.info

Track history (hours):
 
Tides and Currents Weather Stations Pressure Air Temp Water Temp Dewpoint Dewpoint Depression Visibility Wind Speed Wind Dir Waves Ship Positions

Drifting buoy 17652

Last reported at 2014-Jul-31 06:00 UTC. Time now 2014-Jul-31 07:22 UTC.
Position S 41°17' E 029°09'.

Water temperature 11.6 ° C

Date/timePositionNaut miles runAvg speedWind from/ knotsBaromVisibWave heightAir tempDewpointWater temp
2014-Jul-31 06:00S 41°17' E 029°09'0 0.0 11.6
2014-Jul-31 05:00S 41°17' E 029°09'0 0.0 11.6
2014-Jul-31 03:00S 41°17' E 029°09'1 0.3 11.5
2014-Jul-31 01:00S 41°18' E 029°10'0 0.4 11.5
2014-Jul-31 00:00S 41°18' E 029°10'0 0.1 11.6
2014-Jul-30 21:00S 41°17' E 029°10'1 0.4 11.6
2014-Jul-30 18:00S 41°18' E 029°10'1 0.3 11.6
2014-Jul-30 15:00S 41°19' E 029°11'1 0.3 11.6
2014-Jul-30 12:00S 41°20' E 029°11'1 0.8 11.6
2014-Jul-30 11:00S 41°20' E 029°12'0 0.0 11.5
2014-Jul-30 09:00S 41°20' E 029°12'0 0.0 11.5
2014-Jul-30 05:00S 41°20' E 029°12'2 0.5 11.5
2014-Jul-30 01:00S 41°22' E 029°13'0 0.5 11.5
2014-Jul-30 00:00S 41°22' E 029°13'0 0.0 11.5
2014-Jul-29 23:00S 41°22' E 029°13'1 0.7 11.5
2014-Jul-29 22:00S 41°22' E 029°14'1 1.1 11.5
2014-Jul-29 21:00S 41°23' E 029°15'2 0.6 11.5
2014-Jul-29 18:00S 41°24' E 029°17'1 0.2 11.5
2014-Jul-29 15:00S 41°23' E 029°18'0 0.0 11.6
2014-Jul-29 14:00S 41°23' E 029°18'1 0.1 11.5
2014-Jul-29 04:00S 41°23' E 029°19'1 0.9 10.9
2014-Jul-29 03:00S 41°23' E 029°20'1 0.4 11.0
2014-Jul-29 00:00S 41°22' E 029°19'0 0.0 10.9
2014-Jul-28 23:00S 41°22' E 029°19'1 1.1 11.1
2014-Jul-28 22:00S 41°22' E 029°21'2 0.2 11.2
2014-Jul-28 14:00S 41°22' E 029°23'0 0.0 10.7
2014-Jul-28 13:00S 41°22' E 029°23'2 0.8 10.7
2014-Jul-28 11:00S 41°24' E 029°24'4 0.7 10.7
2014-Jul-28 05:00S 41°28' E 029°25'0 0.0 10.8
2014-Jul-28 04:00S 41°28' E 029°25'1 0.3 10.8
2014-Jul-27 23:00S 41°29' E 029°25'2 0.6 10.8
2014-Jul-27 19:00S 41°30' E 029°23'0 0.1 11.0
2014-Jul-27 16:00S 41°30' E 029°23'0 0.3 11.1
2014-Jul-27 15:00S 41°31' E 029°23'0 0.3 11.1
2014-Jul-27 14:00S 41°30' E 029°23'0 0.0 11.1
2014-Jul-27 13:00S 41°30' E 029°23'0 0.1 11.1
2014-Jul-27 07:00S 41°31' E 029°22'1 0.1 11.1
2014-Jul-27 02:00S 41°31' E 029°23'1 0.2 11.1
2014-Jul-26 23:00S 41°31' E 029°24'2 0.5 11.1
2014-Jul-26 20:00S 41°32' E 029°26'0 0.0 11.1
2014-Jul-26 17:00S 41°32' E 029°26'0 0.5 11.1
2014-Jul-26 16:00S 41°32' E 029°25'1 1.0 11.1
2014-Jul-26 15:00S 41°33' E 029°26'0 0.1 11.1
2014-Jul-26 12:00S 41°32' E 029°26'0 0.0 11.1
2014-Jul-26 10:00S 41°32' E 029°26'3 0.7 11.1
2014-Jul-26 06:00S 41°35' E 029°27'0 0.0 11.1
2014-Jul-26 04:00S 41°35' E 029°27'0 0.0 11.1
2014-Jul-26 02:00S 41°35' E 029°27'0 0.0 11.1
2014-Jul-26 00:00S 41°35' E 029°27'1 0.4 11.1
2014-Jul-25 22:00S 41°36' E 029°27'1 0.2 11.1
2014-Jul-25 16:00S 41°36' E 029°25'0 0.1 11.1
2014-Jul-25 13:00S 41°36' E 029°25'0 0.0 11.1
2014-Jul-25 12:00S 41°36' E 029°25'2 0.2 11.1
2014-Jul-25 03:00S 41°37' E 029°23'3 0.5 11.1
2014-Jul-24 22:00S 41°35' E 029°20'0 0.0 11.1
2014-Jul-24 19:00S 41°35' E 029°20'0 0.5 11.1
2014-Jul-24 18:00S 41°35' E 029°20'1 0.4 11.2
2014-Jul-24 16:00S 41°34' E 029°21'0 0.2 11.2
2014-Jul-24 14:00S 41°34' E 029°21'0 0.1 11.2
2014-Jul-24 12:00S 41°34' E 029°21'0 0.1 11.2
2014-Jul-24 05:00S 41°34' E 029°21'0 0.1 11.1
2014-Jul-24 01:00S 41°34' E 029°21'1 0.6 11.1
2014-Jul-23 23:00S 41°33' E 029°22'1 1.0 11.1
2014-Jul-23 22:00S 41°33' E 029°24'2 0.3 11.1
2014-Jul-23 17:00S 41°34' E 029°25'1 0.3 11.1
2014-Jul-23 13:00S 41°35' E 029°26'1 0.8 11.2
2014-Jul-23 12:00S 41°34' E 029°26'2 0.3 11.2
2014-Jul-23 06:00S 41°33' E 029°27'1 1.3 11.1
2014-Jul-23 05:00S 41°33' E 029°29'0 0.2 11.1
2014-Jul-23 04:00S 41°33' E 029°29'1 0.7 11.1
2014-Jul-23 02:00S 41°34' E 029°30'0 0.0 11.2
2014-Jul-23 01:00S 41°34' E 029°30'0 0.1 11.1
2014-Jul-22 21:00S 41°34' E 029°30'1 0.4 11.1
2014-Jul-22 19:00S 41°34' E 029°32'0 0.2 11.1
2014-Jul-22 17:00S 41°34' E 029°32'0 0.1 11.1
2014-Jul-22 15:00S 41°34' E 029°32'1 0.6 11.1
2014-Jul-22 13:00S 41°34' E 029°34'0 0.0 11.1
2014-Jul-22 10:00S 41°34' E 029°34'3 0.6 11.1
2014-Jul-22 05:00S 41°35' E 029°37'2 0.8 11.1
2014-Jul-22 03:00S 41°36' E 029°39'1 0.2 11.1
2014-Jul-22 00:00S 41°37' E 029°38'0 0.4 11.1
2014-Jul-21 23:00S 41°36' E 029°38'1 0.7 11.1
2014-Jul-21 21:00S 41°37' E 029°39'1 0.4 11.1
2014-Jul-21 18:00S 41°37' E 029°41'0 0.0 11.1
2014-Jul-21 16:00S 41°37' E 029°41'1 0.8 11.1
2014-Jul-21 15:00S 41°38' E 029°42'3 0.5 11.1
2014-Jul-21 08:00S 41°41' E 029°42'0 0.3 11.2
2014-Jul-21 07:00S 41°41' E 029°42'   11.1
Track history (hours):
 
Tides and Currents Weather Stations Pressure Air Temp Water Temp Dewpoint Dewpoint Depression Visibility Wind Speed Wind Dir Waves Ship Positions

Drifting buoy 17652

Last reported at 2014-Jul-31 06:00 UTC. Time now 2014-Jul-31 07:22 UTC.
Position S 41°17' E 029°09'.

Water temperature 11.6 ° C

Date/timePositionNaut miles runAvg speedWind from/ knotsBaromVisibWave heightAir tempDewpointWater temp
2014-Jul-31 06:00S 41°17' E 029°09'0 0.0 11.6
2014-Jul-31 05:00S 41°17' E 029°09'0 0.0 11.6
2014-Jul-31 03:00S 41°17' E 029°09'1 0.3 11.5
2014-Jul-31 01:00S 41°18' E 029°10'0 0.4 11.5
2014-Jul-31 00:00S 41°18' E 029°10'0 0.1 11.6
2014-Jul-30 21:00S 41°17' E 029°10'1 0.4 11.6
2014-Jul-30 18:00S 41°18' E 029°10'1 0.3 11.6
2014-Jul-30 15:00S 41°19' E 029°11'1 0.3 11.6
2014-Jul-30 12:00S 41°20' E 029°11'1 0.8 11.6
2014-Jul-30 11:00S 41°20' E 029°12'0 0.0 11.5
2014-Jul-30 09:00S 41°20' E 029°12'0 0.0 11.5
2014-Jul-30 05:00S 41°20' E 029°12'2 0.5 11.5
2014-Jul-30 01:00S 41°22' E 029°13'0 0.5 11.5
2014-Jul-30 00:00S 41°22' E 029°13'0 0.0 11.5
2014-Jul-29 23:00S 41°22' E 029°13'1 0.7 11.5
2014-Jul-29 22:00S 41°22' E 029°14'1 1.1 11.5
2014-Jul-29 21:00S 41°23' E 029°15'2 0.6 11.5
2014-Jul-29 18:00S 41°24' E 029°17'1 0.2 11.5
2014-Jul-29 15:00S 41°23' E 029°18'0 0.0 11.6
2014-Jul-29 14:00S 41°23' E 029°18'1 0.1 11.5
2014-Jul-29 04:00S 41°23' E 029°19'1 0.9 10.9
2014-Jul-29 03:00S 41°23' E 029°20'1 0.4 11.0
2014-Jul-29 00:00S 41°22' E 029°19'0 0.0 10.9
2014-Jul-28 23:00S 41°22' E 029°19'1 1.1 11.1
2014-Jul-28 22:00S 41°22' E 029°21'2 0.2 11.2
2014-Jul-28 14:00S 41°22' E 029°23'0 0.0 10.7
2014-Jul-28 13:00S 41°22' E 029°23'2 0.8 10.7
2014-Jul-28 11:00S 41°24' E 029°24'4 0.7 10.7
2014-Jul-28 05:00S 41°28' E 029°25'0 0.0 10.8
2014-Jul-28 04:00S 41°28' E 029°25'1 0.3 10.8
2014-Jul-27 23:00S 41°29' E 029°25'2 0.6 10.8
2014-Jul-27 19:00S 41°30' E 029°23'0 0.1 11.0
2014-Jul-27 16:00S 41°30' E 029°23'0 0.3 11.1
2014-Jul-27 15:00S 41°31' E 029°23'0 0.3 11.1
2014-Jul-27 14:00S 41°30' E 029°23'0 0.0 11.1
2014-Jul-27 13:00S 41°30' E 029°23'0 0.1 11.1
2014-Jul-27 07:00S 41°31' E 029°22'1 0.1 11.1
2014-Jul-27 02:00S 41°31' E 029°23'1 0.2 11.1
2014-Jul-26 23:00S 41°31' E 029°24'2 0.5 11.1
2014-Jul-26 20:00S 41°32' E 029°26'0 0.0 11.1
2014-Jul-26 17:00S 41°32' E 029°26'0 0.5 11.1
2014-Jul-26 16:00S 41°32' E 029°25'1 1.0 11.1
2014-Jul-26 15:00S 41°33' E 029°26'0 0.1 11.1
2014-Jul-26 12:00S 41°32' E 029°26'0 0.0 11.1
2014-Jul-26 10:00S 41°32' E 029°26'3 0.7 11.1
2014-Jul-26 06:00S 41°35' E 029°27'0 0.0 11.1
2014-Jul-26 04:00S 41°35' E 029°27'0 0.0 11.1
2014-Jul-26 02:00S 41°35' E 029°27'0 0.0 11.1
2014-Jul-26 00:00S 41°35' E 029°27'1 0.4 11.1
2014-Jul-25 22:00S 41°36' E 029°27'1 0.2 11.1
2014-Jul-25 16:00S 41°36' E 029°25'0 0.1 11.1
2014-Jul-25 13:00S 41°36' E 029°25'0 0.0 11.1
2014-Jul-25 12:00S 41°36' E 029°25'2 0.2 11.1
2014-Jul-25 03:00S 41°37' E 029°23'3 0.5 11.1
2014-Jul-24 22:00S 41°35' E 029°20'0 0.0 11.1
2014-Jul-24 19:00S 41°35' E 029°20'0 0.5 11.1
2014-Jul-24 18:00S 41°35' E 029°20'1 0.4 11.2
2014-Jul-24 16:00S 41°34' E 029°21'0 0.2 11.2
2014-Jul-24 14:00S 41°34' E 029°21'0 0.1 11.2
2014-Jul-24 12:00S 41°34' E 029°21'0 0.1 11.2
2014-Jul-24 05:00S 41°34' E 029°21'0 0.1 11.1
2014-Jul-24 01:00S 41°34' E 029°21'1 0.6 11.1
2014-Jul-23 23:00S 41°33' E 029°22'1 1.0 11.1
2014-Jul-23 22:00S 41°33' E 029°24'2 0.3 11.1
2014-Jul-23 17:00S 41°34' E 029°25'1 0.3 11.1
2014-Jul-23 13:00S 41°35' E 029°26'1 0.8 11.2
2014-Jul-23 12:00S 41°34' E 029°26'2 0.3 11.2
2014-Jul-23 06:00S 41°33' E 029°27'1 1.3 11.1
2014-Jul-23 05:00S 41°33' E 029°29'0 0.2 11.1
2014-Jul-23 04:00S 41°33' E 029°29'1 0.7 11.1
2014-Jul-23 02:00S 41°34' E 029°30'0 0.0 11.2
2014-Jul-23 01:00S 41°34' E 029°30'0 0.1 11.1
2014-Jul-22 21:00S 41°34' E 029°30'1 0.4 11.1
2014-Jul-22 19:00S 41°34' E 029°32'0 0.2 11.1
2014-Jul-22 17:00S 41°34' E 029°32'0 0.1 11.1
2014-Jul-22 15:00S 41°34' E 029°32'1 0.6 11.1
2014-Jul-22 13:00S 41°34' E 029°34'0 0.0 11.1
2014-Jul-22 10:00S 41°34' E 029°34'3 0.6 11.1
2014-Jul-22 05:00S 41°35' E 029°37'2 0.8 11.1
2014-Jul-22 03:00S 41°36' E 029°39'1 0.2 11.1
2014-Jul-22 00:00S 41°37' E 029°38'0 0.4 11.1
2014-Jul-21 23:00S 41°36' E 029°38'1 0.7 11.1
2014-Jul-21 21:00S 41°37' E 029°39'1 0.4 11.1
2014-Jul-21 18:00S 41°37' E 029°41'0 0.0 11.1
2014-Jul-21 16:00S 41°37' E 029°41'1 0.8 11.1
2014-Jul-21 15:00S 41°38' E 029°42'3 0.5 11.1
2014-Jul-21 08:00S 41°41' E 029°42'0 0.3 11.2
2014-Jul-21 07:00S 41°41' E 029°42'   11.1

Dump ship's entire track history